Time;durP1;ratioP1;P1;durP2;ratioP2;P2;SDS_P1;SDS_P2;PMS_P1;PMS_P2;Temp;Humidity;BMP_temperature;BMP_pressure;BME280_temperature;BME280_humidity;BME280_pressure;Samples;Min_cycle;Max_cycle;Signal;HPM_P1;HPM_P2
2021/07/14 00:00:38;;;;;;;18.45;12.00;;;20.40;99.90;;;;;;5073656;28;20029;-72
2021/07/14 00:03:04;;;;;;;17.15;12.02;;;20.40;99.90;;;;;;5070843;28;20029;-72
2021/07/14 00:05:32;;;;;;;14.73;12.82;;;20.40;99.90;;;;;;5070407;28;20017;-72
2021/07/14 00:07:57;;;;;;;15.57;11.93;;;20.40;99.90;;;;;;5074045;28;20350;-72
2021/07/14 00:10:31;;;;;;;15.82;10.60;;;20.40;99.90;;;;;;5073903;28;20496;-72
2021/07/14 00:13:05;;;;;;;12.95;10.75;;;20.40;99.90;;;;;;5078829;28;20012;-72
2021/07/14 00:23:26;;;;;;;16.58;11.98;;;20.30;99.90;;;;;;5075468;28;20392;-72
2021/07/14 00:25:52;;;;;;;16.58;12.75;;;20.30;99.90;;;;;;5077532;28;20028;-72
2021/07/14 00:28:18;;;;;;;15.88;11.63;;;20.30;99.90;;;;;;5079137;28;20025;-72
2021/07/14 00:30:49;;;;;;;14.32;10.80;;;20.40;99.90;;;;;;5075582;28;20119;-72
2021/07/14 00:33:15;;;;;;;17.08;11.20;;;20.40;99.90;;;;;;5077437;28;20020;-72
2021/07/14 00:35:41;;;;;;;16.67;10.82;;;20.40;99.90;;;;;;5075826;28;20046;-72
2021/07/14 00:38:06;;;;;;;16.63;11.68;;;20.40;99.90;;;;;;5074151;28;20143;-72
2021/07/14 00:40:32;;;;;;;12.68;10.20;;;20.40;99.90;;;;;;5076566;28;20024;-72
2021/07/14 00:42:58;;;;;;;15.98;11.80;;;20.40;99.90;;;;;;5077894;28;20390;-72
2021/07/14 00:45:23;;;;;;;15.02;11.23;;;20.30;99.90;;;;;;5095383;28;20027;-72
2021/07/14 00:47:55;;;;;;;15.70;11.25;;;20.30;99.90;;;;;;5088164;28;20474;-72
2021/07/14 00:50:20;;;;;;;15.25;11.85;;;20.30;99.90;;;;;;5075799;28;20009;-72
2021/07/14 00:52:46;;;;;;;13.73;10.55;;;20.30;99.90;;;;;;5077044;28;20397;-72
2021/07/14 00:55:11;;;;;;;14.98;10.48;;;20.30;99.90;;;;;;5076494;28;20028;-72
2021/07/14 00:57:37;;;;;;;11.88;9.90;;;20.30;99.90;;;;;;5076468;28;20074;-72
2021/07/14 01:00:06;;;;;;;12.40;9.82;;;20.40;99.90;;;;;;5076006;28;20082;-72
2021/07/14 01:02:32;;;;;;;14.15;10.93;;;20.40;99.90;;;;;;5077008;28;20095;-72
2021/07/14 01:05:08;;;;;;;16.20;10.73;;;20.40;99.90;;;;;;5074632;28;20032;-72
2021/07/14 01:07:55;;;;;;;14.55;9.73;;;20.40;99.90;;;;;;5078599;28;20028;-71
2021/07/14 01:10:23;;;;;;;12.80;10.40;;;20.40;99.90;;;;;;5075496;28;20056;-72
2021/07/14 01:13:11;;;;;;;15.13;12.07;;;20.30;99.90;;;;;;5078049;28;20473;-72
2021/07/14 01:15:59;;;;;;;16.85;10.77;;;20.30;99.90;;;;;;5068857;28;20033;-72
2021/07/14 01:18:30;;;;;;;18.73;12.82;;;20.30;99.90;;;;;;5075981;28;20086;-72
2021/07/14 01:21:10;;;;;;;15.82;11.13;;;20.30;99.90;;;;;;5075075;28;20451;-72
2021/07/14 01:24:03;;;;;;;14.57;10.95;;;20.30;99.90;;;;;;5073669;28;20033;-72
2021/07/14 01:26:53;;;;;;;12.48;9.68;;;20.30;99.90;;;;;;5077622;28;20557;-72
2021/07/14 01:29:20;;;;;;;14.13;10.57;;;20.30;99.90;;;;;;5076111;28;20158;-72
2021/07/14 01:31:48;;;;;;;12.27;10.48;;;20.20;99.90;;;;;;5075692;28;20043;-71
2021/07/14 01:34:14;;;;;;;14.57;10.80;;;20.20;99.90;;;;;;5075116;28;20020;-72
2021/07/14 01:36:44;;;;;;;13.15;10.68;;;20.20;99.90;;;;;;5074057;28;20429;-72
2021/07/14 01:39:10;;;;;;;15.35;10.60;;;20.20;99.90;;;;;;5074149;28;20012;-72
2021/07/14 01:41:40;;;;;;;13.25;10.65;;;20.20;99.90;;;;;;5075113;28;20030;-72
2021/07/14 01:44:07;;;;;;;12.10;10.45;;;20.20;99.90;;;;;;5077559;28;20457;-71
2021/07/14 01:46:35;;;;;;;15.38;11.32;;;20.20;99.90;;;;;;5073065;28;20024;-71
2021/07/14 01:49:12;;;;;;;13.53;10.80;;;20.20;99.90;;;;;;5074322;28;20023;-72
2021/07/14 01:51:41;;;;;;;12.18;9.48;;;20.20;99.90;;;;;;5076307;28;20255;-72
2021/07/14 01:54:08;;;;;;;12.73;9.65;;;20.20;99.90;;;;;;5079841;28;20012;-71
2021/07/14 01:56:38;;;;;;;14.40;9.88;;;20.20;99.90;;;;;;5073827;28;20054;-71
2021/07/14 01:59:05;;;;;;;12.23;9.30;;;20.20;99.90;;;;;;5075435;28;20077;-72
2021/07/14 02:01:32;;;;;;;10.98;8.75;;;20.20;99.90;;;;;;5074447;28;20016;-71
2021/07/14 02:06:46;;;;;;;14.25;11.23;;;20.20;99.90;;;;;;5073590;28;20051;-72
2021/07/14 02:09:12;;;;;;;14.18;12.00;;;20.20;99.90;;;;;;5075242;28;20066;-72
2021/07/14 02:11:38;;;;;;;14.63;11.20;;;20.20;99.90;;;;;;5075195;28;20032;-72
2021/07/14 02:14:04;;;;;;;15.57;10.90;;;20.20;99.90;;;;;;5075069;28;20452;-72
2021/07/14 02:16:30;;;;;;;14.60;11.50;;;20.20;99.90;;;;;;5074269;28;20104;-72
2021/07/14 02:18:59;;;;;;;17.00;12.38;;;20.20;99.90;;;;;;5073975;28;20466;-72
2021/07/14 02:21:26;;;;;;;;;;;20.20;99.90;;;;;;5073441;28;20024;-72
2021/07/14 02:23:52;;;;;;;14.30;11.25;;;20.10;99.90;;;;;;5072162;28;19953;-72
2021/07/14 02:26:18;;;;;;;15.73;11.90;;;20.10;99.90;;;;;;5074912;28;20020;-72
2021/07/14 02:28:43;;;;;;;15.98;11.32;;;20.10;99.90;;;;;;5075100;28;20020;-72
2021/07/14 02:31:09;;;;;;;15.45;10.32;;;20.10;99.90;;;;;;5075699;28;20094;-72
2021/07/14 02:33:34;;;;;;;17.15;10.75;;;20.10;99.90;;;;;;5073108;28;20090;-72
2021/07/14 02:36:03;;;;;;;14.70;10.68;;;20.10;99.90;;;;;;5073641;28;20023;-72
2021/07/14 02:38:36;;;;;;;14.15;11.32;;;20.20;99.90;;;;;;5073721;28;20049;-72
2021/07/14 02:41:07;;;;;;;15.38;10.60;;;20.10;99.90;;;;;;5085288;28;20124;-72
2021/07/14 02:43:37;;;;;;;16.90;10.07;;;20.10;99.90;;;;;;5074814;28;20028;-72
2021/07/14 02:46:11;;;;;;;13.27;9.75;;;20.20;99.90;;;;;;5073244;28;20059;-72
2021/07/14 02:48:38;;;;;;;13.02;10.18;;;20.10;99.90;;;;;;5073171;28;20021;-72
2021/07/14 02:51:04;;;;;;;14.73;10.85;;;20.10;99.90;;;;;;5072375;28;20021;-72
2021/07/14 02:53:33;;;;;;;14.02;10.38;;;20.10;99.90;;;;;;5074998;28;20048;-71
2021/07/14 02:56:04;;;;;;;12.48;8.63;;;20.10;99.90;;;;;;5076398;28;20016;-71
2021/07/14 02:58:32;;;;;;;12.40;8.50;;;20.10;99.90;;;;;;5072472;28;20484;-71
2021/07/14 03:00:59;;;;;;;13.52;10.85;;;20.10;99.90;;;;;;5076494;28;20055;-72
2021/07/14 03:03:25;;;;;;;13.63;10.85;;;20.00;99.90;;;;;;5072936;28;20036;-71
2021/07/14 03:06:00;;;;;;;16.98;12.52;;;20.00;99.90;;;;;;5075807;28;20032;-72
2021/07/14 03:08:27;;;;;;;14.38;11.70;;;20.10;99.90;;;;;;5072016;28;20024;-72
2021/07/14 03:10:58;;;;;;;13.38;10.55;;;20.00;99.90;;;;;;5075222;28;20556;-71
2021/07/14 03:13:25;;;;;;;12.88;10.98;;;20.00;99.90;;;;;;5085167;28;20111;-71
2021/07/14 03:15:52;;;;;;;14.15;10.45;;;19.90;99.90;;;;;;5074620;28;20017;-71
2021/07/14 03:18:20;;;;;;;12.23;10.82;;;20.00;99.90;;;;;;5073150;28;20058;-71
2021/07/14 03:20:46;;;;;;;15.48;11.57;;;19.90;99.90;;;;;;5073346;28;20021;-71
2021/07/14 03:23:13;;;;;;;11.25;9.30;;;19.90;99.90;;;;;;5072471;28;20447;-71
2021/07/14 03:25:41;;;;;;;13.27;10.40;;;20.00;99.90;;;;;;5071809;28;20456;-71
2021/07/14 03:28:07;;;;;;;11.02;8.68;;;19.90;99.90;;;;;;5075101;28;20069;-72
2021/07/14 03:30:33;;;;;;;11.35;9.23;;;19.90;99.90;;;;;;5073911;28;20017;-71
2021/07/14 03:32:58;;;;;;;13.73;9.10;;;19.90;99.90;;;;;;5074656;28;20070;-72
2021/07/14 03:35:24;;;;;;;13.77;10.23;;;19.90;99.90;;;;;;5072968;28;20074;-71
2021/07/14 03:37:52;;;;;;;15.52;12.18;;;19.90;99.90;;;;;;5075522;28;20097;-71
2021/07/14 03:40:18;;;;;;;14.52;11.23;;;19.90;99.90;;;;;;5072047;28;20046;-72
2021/07/14 03:42:47;;;;;;;12.75;9.95;;;19.90;99.90;;;;;;5071700;28;20078;-71
2021/07/14 03:45:12;;;;;;;12.48;10.13;;;19.80;99.90;;;;;;5073092;28;20070;-71
2021/07/14 03:47:41;;;;;;;10.77;9.23;;;19.80;99.90;;;;;;5072296;28;20028;-72
2021/07/14 03:50:07;;;;;;;13.90;10.32;;;19.80;99.90;;;;;;5070728;28;20032;-71
2021/07/14 03:52:34;;;;;;;12.15;9.98;;;19.80;99.90;;;;;;5074336;28;20020;-71
2021/07/14 03:55:00;;;;;;;13.73;11.20;;;19.80;99.90;;;;;;5075353;28;20031;-72
2021/07/14 03:57:27;;;;;;;11.20;9.95;;;19.70;99.90;;;;;;5075241;28;20023;-72
2021/07/14 03:59:53;;;;;;;13.95;9.63;;;19.70;99.90;;;;;;5073099;28;20040;-72
2021/07/14 04:02:20;;;;;;;13.52;11.00;;;19.70;99.90;;;;;;5073523;28;20059;-72
2021/07/14 04:04:46;;;;;;;10.65;9.45;;;19.60;99.90;;;;;;5072644;28;20040;-71
2021/07/14 04:07:15;;;;;;;12.00;9.45;;;19.70;99.90;;;;;;5071704;28;20024;-71
2021/07/14 04:09:45;;;;;;;16.92;11.82;;;19.70;99.90;;;;;;5076898;28;20027;-71
2021/07/14 04:12:12;;;;;;;13.10;9.48;;;19.60;99.90;;;;;;5075253;28;20032;-72
2021/07/14 04:14:38;;;;;;;11.05;9.15;;;19.60;99.90;;;;;;5074961;28;20097;-71
2021/07/14 04:17:03;;;;;;;12.07;9.30;;;19.60;99.90;;;;;;5072828;28;20075;-71
2021/07/14 04:19:29;;;;;;;11.43;9.55;;;19.60;99.90;;;;;;5073457;28;20024;-71
2021/07/14 04:21:56;;;;;;;10.20;9.10;;;19.60;99.90;;;;;;5071906;28;20516;-71
2021/07/14 04:24:22;;;;;;;11.80;9.65;;;19.70;99.90;;;;;;5071856;28;20056;-71
2021/07/14 04:26:49;;;;;;;14.32;11.13;;;19.60;99.90;;;;;;5073946;28;20064;-71
2021/07/14 04:29:15;;;;;;;13.00;10.85;;;19.60;99.90;;;;;;5073499;28;20035;-72
2021/07/14 04:31:41;;;;;;;11.45;9.63;;;19.60;99.90;;;;;;5073767;28;20062;-71
2021/07/14 04:34:07;;;;;;;13.82;10.50;;;19.60;99.90;;;;;;5072514;28;20094;-71
2021/07/14 04:36:33;;;;;;;12.73;10.93;;;19.60;99.90;;;;;;5073214;28;20027;-71
2021/07/14 04:38:59;;;;;;;14.43;11.25;;;19.60;99.90;;;;;;5071621;28;20016;-71
2021/07/14 04:41:27;;;;;;;16.90;14.05;;;19.60;99.90;;;;;;5070435;28;20020;-71
2021/07/14 04:43:52;;;;;;;15.93;12.38;;;19.60;99.90;;;;;;5073492;28;20017;-71
2021/07/14 04:46:18;;;;;;;13.45;10.55;;;19.60;99.90;;;;;;5070708;28;20036;-71
2021/07/14 04:48:43;;;;;;;13.23;10.35;;;19.60;99.90;;;;;;5072070;28;20025;-71
2021/07/14 04:51:09;;;;;;;14.63;11.20;;;19.60;99.90;;;;;;5071208;28;20032;-71
2021/07/14 04:53:34;;;;;;;15.27;13.05;;;19.60;99.90;;;;;;5073902;28;20478;-71
2021/07/14 04:56:00;;;;;;;13.45;11.07;;;19.60;99.90;;;;;;5075660;28;20458;-71
2021/07/14 04:58:27;;;;;;;20.33;15.35;;;19.60;99.90;;;;;;5073191;28;20039;-71
2021/07/14 05:00:52;;;;;;;14.57;12.15;;;19.60;99.90;;;;;;5077230;28;20043;-71
2021/07/14 05:03:18;;;;;;;14.57;11.60;;;19.60;99.90;;;;;;5075325;28;20437;-71
2021/07/14 05:05:44;;;;;;;13.68;11.23;;;19.60;99.90;;;;;;5075603;28;20024;-71
2021/07/14 05:08:09;;;;;;;18.33;14.52;;;19.60;99.90;;;;;;5082180;28;20031;-71
2021/07/14 05:10:35;;;;;;;14.13;12.52;;;19.60;99.90;;;;;;5095224;28;20115;-71
2021/07/14 05:13:01;;;;;;;17.50;13.32;;;19.60;99.90;;;;;;5077973;28;20043;-71
2021/07/14 05:15:27;;;;;;;14.25;12.48;;;19.50;99.90;;;;;;5090584;28;20064;-71
2021/07/14 05:17:52;;;;;;;13.98;11.73;;;19.50;99.90;;;;;;5079491;28;20024;-71
2021/07/14 05:20:18;;;;;;;16.17;12.07;;;19.50;99.90;;;;;;5094855;28;20020;-71
2021/07/14 05:22:44;;;;;;;15.15;11.85;;;19.50;99.90;;;;;;5094892;28;20481;-71
2021/07/14 05:25:10;;;;;;;14.52;12.18;;;19.50;99.90;;;;;;5095084;28;20423;-71
2021/07/14 05:27:36;;;;;;;12.70;11.35;;;19.50;99.90;;;;;;5094919;28;20485;-71
2021/07/14 05:30:05;;;;;;;15.52;11.75;;;19.60;99.90;;;;;;5094730;28;20064;-71
2021/07/14 05:32:31;;;;;;;14.65;12.15;;;19.60;99.90;;;;;;5094573;28;20508;-71
2021/07/14 05:34:56;;;;;;;18.13;13.57;;;19.60;99.90;;;;;;5094709;28;20056;-71
2021/07/14 05:37:22;;;;;;;15.25;12.18;;;19.60;99.90;;;;;;5094596;28;20083;-71
2021/07/14 05:39:47;;;;;;;18.33;13.65;;;19.60;99.90;;;;;;5094540;28;20438;-72
2021/07/14 05:42:13;;;;;;;15.13;11.73;;;19.60;99.90;;;;;;5093433;28;20114;-71
2021/07/14 05:44:39;;;;;;;14.63;12.07;;;19.60;99.90;;;;;;5094531;28;20043;-71
2021/07/14 05:47:04;;;;;;;14.15;11.40;;;19.60;99.90;;;;;;5094246;28;20028;-71
2021/07/14 05:49:30;;;;;;;13.77;11.38;;;19.70;99.90;;;;;;5093177;28;20438;-71
2021/07/14 05:51:56;;;;;;;16.63;11.57;;;19.70;99.90;;;;;;5091927;28;20093;-72
2021/07/14 05:54:21;;;;;;;15.00;12.52;;;19.70;99.90;;;;;;5080724;28;20026;-72
2021/07/14 05:56:47;;;;;;;16.35;12.75;;;19.70;99.90;;;;;;5074189;28;20019;-71
2021/07/14 05:59:12;;;;;;;17.73;15.00;;;19.80;99.90;;;;;;5077628;28;20052;-72
2021/07/14 06:01:38;;;;;;;16.30;12.60;;;19.70;99.90;;;;;;5074051;28;20056;-71
2021/07/14 06:04:04;;;;;;;14.02;11.98;;;19.70;99.90;;;;;;5072578;28;20021;-71
2021/07/14 06:06:30;;;;;;;15.82;11.35;;;19.80;99.90;;;;;;5074790;28;20095;-72
2021/07/14 06:08:55;;;;;;;16.02;11.20;;;19.80;99.90;;;;;;5075375;28;20108;-71
2021/07/14 06:11:21;;;;;;;16.25;11.43;;;19.80;99.90;;;;;;5075265;28;20432;-72
2021/07/14 06:13:47;;;;;;;14.73;11.48;;;19.90;99.90;;;;;;5077533;28;20118;-72
2021/07/14 06:16:12;;;;;;;13.82;10.98;;;19.80;99.90;;;;;;5075256;28;20377;-72
2021/07/14 06:18:38;;;;;;;15.32;12.85;;;19.90;99.90;;;;;;5074653;28;20486;-71
2021/07/14 06:21:04;;;;;;;13.88;11.57;;;19.90;99.90;;;;;;5075678;28;20438;-72
2021/07/14 06:23:30;;;;;;;15.18;11.13;;;19.90;99.90;;;;;;5072498;28;20378;-72
2021/07/14 06:25:56;;;;;;;13.68;11.55;;;20.00;99.90;;;;;;5075976;28;20020;-71
2021/07/14 06:28:22;;;;;;;15.85;12.65;;;20.00;99.90;;;;;;5073382;28;20431;-72
2021/07/14 06:30:48;;;;;;;17.73;14.65;;;20.00;99.90;;;;;;5077023;28;20474;-72
2021/07/14 06:33:15;;;;;;;17.55;12.45;;;20.00;99.90;;;;;;5077440;28;20386;-72
2021/07/14 06:35:41;;;;;;;14.68;12.63;;;20.00;99.90;;;;;;5076175;28;20107;-72
2021/07/14 06:38:07;;;;;;;14.75;12.70;;;20.00;99.90;;;;;;5079838;28;20040;-72
2021/07/14 06:40:36;;;;;;;16.23;12.68;;;20.00;99.90;;;;;;5093153;28;20016;-72
2021/07/14 06:43:01;;;;;;;13.68;12.25;;;20.10;99.90;;;;;;5093226;28;20031;-72
2021/07/14 06:45:27;;;;;;;16.85;13.52;;;20.10;99.90;;;;;;5093191;28;20024;-72
2021/07/14 06:47:56;;;;;;;14.85;12.02;;;20.10;99.90;;;;;;5091999;28;20031;-72
2021/07/14 06:50:21;;;;;;;16.80;13.37;;;20.10;99.90;;;;;;5093232;28;20047;-72
2021/07/14 06:52:47;;;;;;;19.83;13.57;;;20.10;99.90;;;;;;5079412;28;20028;-72
2021/07/14 06:55:13;;;;;;;16.33;13.80;;;20.10;99.90;;;;;;5092933;28;20023;-72
2021/07/14 06:57:40;;;;;;;18.92;14.57;;;20.10;99.90;;;;;;5091568;28;20027;-72
2021/07/14 07:00:08;;;;;;;17.10;13.15;;;20.10;99.90;;;;;;5091282;28;20028;-73
2021/07/14 07:02:34;;;;;;;18.33;14.15;;;20.20;99.90;;;;;;5092596;28;20074;-73
2021/07/14 07:05:00;;;;;;;16.52;13.20;;;20.10;99.90;;;;;;5092522;28;20422;-73
2021/07/14 07:07:25;;;;;;;18.05;13.23;;;20.10;99.90;;;;;;5082682;28;20028;-73
2021/07/14 07:09:52;;;;;;;20.48;15.05;;;20.10;99.90;;;;;;5072238;28;20031;-73
2021/07/14 07:12:19;;;;;;;20.33;15.73;;;20.10;99.90;;;;;;5081366;28;20469;-73
2021/07/14 07:14:44;;;;;;;17.13;13.95;;;20.10;99.90;;;;;;5089240;28;20028;-75
2021/07/14 07:17:10;;;;;;;17.05;13.38;;;20.10;99.90;;;;;;5085880;28;20074;-75
2021/07/14 07:19:36;;;;;;;17.70;13.80;;;20.10;99.90;;;;;;5089488;28;20077;-75
2021/07/14 07:22:02;;;;;;;18.13;14.48;;;20.10;99.90;;;;;;5085015;28;20426;-75
2021/07/14 07:24:27;;;;;;;18.30;14.00;;;20.10;99.90;;;;;;5092336;28;20027;-75
2021/07/14 07:26:53;;;;;;;22.70;16.23;;;20.10;99.90;;;;;;5092117;28;20406;-75
2021/07/14 07:29:18;;;;;;;16.10;13.27;;;20.10;99.90;;;;;;5092340;28;20397;-75
2021/07/14 07:31:44;;;;;;;17.27;13.40;;;20.10;99.90;;;;;;5066143;28;20027;-74
2021/07/14 07:34:10;;;;;;;17.17;13.07;;;20.10;99.90;;;;;;5055243;28;20025;-74
2021/07/14 07:36:35;;;;;;;15.52;13.15;;;20.10;99.90;;;;;;5074064;28;20043;-73
2021/07/14 07:39:03;;;;;;;15.38;12.40;;;20.10;99.90;;;;;;5091232;28;20031;-74
2021/07/14 07:41:28;;;;;;;15.95;12.20;;;20.10;99.90;;;;;;5090972;28;20039;-74
2021/07/14 07:43:55;;;;;;;14.82;11.80;;;20.10;99.90;;;;;;5092401;28;20513;-74
2021/07/14 07:46:21;;;;;;;14.88;11.63;;;20.10;99.90;;;;;;5092715;28;20496;-74
2021/07/14 07:48:47;;;;;;;14.93;11.75;;;20.10;99.90;;;;;;5090855;28;20024;-74
2021/07/14 07:51:13;;;;;;;16.42;12.48;;;20.10;99.90;;;;;;5090361;28;20024;-74
2021/07/14 07:53:39;;;;;;;14.73;12.55;;;20.10;99.90;;;;;;5079055;28;20073;-73
2021/07/14 07:56:06;;;;;;;17.80;11.55;;;20.10;99.90;;;;;;5090873;28;20500;-73
2021/07/14 07:58:32;;;;;;;18.67;13.60;;;20.20;99.90;;;;;;5076097;28;20497;-73
2021/07/14 08:00:58;;;;;;;24.33;18.00;;;20.10;99.90;;;;;;5071548;28;20031;-73
2021/07/14 08:03:23;;;;;;;18.65;15.30;;;20.10;99.90;;;;;;5077281;28;20020;-73
2021/07/14 08:05:49;;;;;;;19.70;15.73;;;20.10;99.90;;;;;;5071379;28;20025;-72
2021/07/14 08:08:16;;;;;;;19.23;15.38;;;20.10;99.90;;;;;;5071708;28;20069;-73
2021/07/14 08:10:42;;;;;;;18.85;14.02;;;20.00;99.90;;;;;;5071411;28;20028;-73
2021/07/14 08:13:07;;;;;;;18.92;15.30;;;20.00;99.90;;;;;;5074361;28;20119;-73
2021/07/14 08:15:33;;;;;;;18.23;15.32;;;20.00;99.90;;;;;;5068335;28;20024;-73
2021/07/14 08:17:59;;;;;;;15.73;12.90;;;20.00;99.90;;;;;;5077037;28;20043;-72
2021/07/14 08:20:25;;;;;;;17.80;14.25;;;20.00;99.90;;;;;;5088600;28;20028;-72
2021/07/14 08:22:51;;;;;;;15.90;13.43;;;19.90;99.90;;;;;;5091563;28;20028;-73
2021/07/14 08:25:17;;;;;;;18.33;12.60;;;20.00;99.90;;;;;;5087441;28;20439;-73
2021/07/14 08:27:43;;;;;;;18.25;13.15;;;20.00;99.90;;;;;;5090960;28;20615;-73
2021/07/14 08:30:10;;;;;;;19.73;13.63;;;20.00;99.90;;;;;;5090772;28;20024;-74
2021/07/14 08:32:36;;;;;;;15.57;11.95;;;20.10;99.90;;;;;;5093181;28;20043;-73
2021/07/14 08:35:01;;;;;;;21.25;16.05;;;20.10;99.90;;;;;;5095163;28;20020;-73
2021/07/14 08:37:27;;;;;;;26.13;17.25;;;20.10;99.90;;;;;;5094350;28;20421;-73
2021/07/14 08:39:54;;;;;;;21.50;16.08;;;20.10;99.90;;;;;;5095123;28;20046;-73
2021/07/14 08:42:24;;;;;;;18.08;14.30;;;20.10;99.90;;;;;;5091507;28;20074;-73
2021/07/14 08:44:50;;;;;;;17.48;13.35;;;20.10;99.90;;;;;;5091124;28;20036;-73
2021/07/14 08:47:17;;;;;;;24.77;19.08;;;20.10;99.90;;;;;;5094729;28;20089;-72
2021/07/14 08:49:44;;;;;;;22.70;17.10;;;20.10;99.90;;;;;;5089434;28;20032;-72
2021/07/14 08:52:12;;;;;;;20.08;15.50;;;20.10;99.90;;;;;;5073833;28;20120;-72
2021/07/14 08:54:38;;;;;;;20.95;16.15;;;20.10;99.90;;;;;;5077171;28;20031;-72
2021/07/14 08:57:04;;;;;;;22.75;15.05;;;20.10;99.90;;;;;;5088857;28;20068;-73
2021/07/14 08:59:30;;;;;;;18.45;14.23;;;20.10;99.90;;;;;;5090284;28;20016;-72
2021/07/14 09:01:56;;;;;;;18.38;14.88;;;20.10;99.90;;;;;;5094566;28;20476;-72
2021/07/14 09:04:22;;;;;;;21.80;15.95;;;20.20;99.90;;;;;;5093751;28;20035;-72
2021/07/14 09:06:47;;;;;;;21.17;15.55;;;20.10;99.90;;;;;;5094887;28;20426;-72
2021/07/14 09:09:13;;;;;;;26.30;19.25;;;20.10;99.90;;;;;;5091079;28;20031;-72
2021/07/14 09:11:51;;;;;;;23.63;17.15;;;20.20;99.90;;;;;;5093844;28;20028;-72
2021/07/14 09:14:37;;;;;;;27.42;19.55;;;20.20;99.90;;;;;;5092934;28;20076;-72
2021/07/14 09:17:24;;;;;;;23.30;16.30;;;20.10;99.90;;;;;;5093330;28;20529;-72
2021/07/14 09:19:52;;;;;;;20.73;16.08;;;20.10;99.90;;;;;;5083871;28;20028;-73
2021/07/14 09:22:24;;;;;;;23.40;17.85;;;20.20;99.90;;;;;;5084380;28;20043;-69
2021/07/14 09:24:51;;;;;;;28.00;18.70;;;20.10;99.90;;;;;;5090383;28;20038;-72
2021/07/14 09:27:19;;;;;;;21.85;17.60;;;20.10;99.90;;;;;;5094771;28;20035;-71
2021/07/14 09:30:08;;;;;;;26.55;18.40;;;20.10;99.90;;;;;;5091570;28;20204;-71
2021/07/14 09:32:48;;;;;;;21.10;14.73;;;20.10;99.90;;;;;;5086225;28;20020;-72
2021/07/14 09:35:34;;;;;;;21.40;15.30;;;20.10;99.90;;;;;;5091812;28;20024;-72
2021/07/14 09:38:04;;;;;;;21.02;14.20;;;20.20;99.90;;;;;;5092139;28;20067;-73
2021/07/14 09:40:30;;;;;;;18.13;13.95;;;20.10;99.90;;;;;;5092595;28;20095;-72
2021/07/14 09:42:59;;;;;;;19.45;14.60;;;20.10;99.90;;;;;;5091963;28;20103;-72
2021/07/14 09:45:48;;;;;;;22.13;16.38;;;20.20;99.90;;;;;;5093079;28;20024;-73
2021/07/14 09:48:25;;;;;;;19.80;13.82;;;20.20;99.90;;;;;;5092951;28;20034;-72
2021/07/14 09:51:00;;;;;;;22.33;15.77;;;20.20;99.90;;;;;;5091041;28;20055;-73
2021/07/14 09:53:29;;;;;;;18.10;13.70;;;20.20;99.90;;;;;;5090722;28;20060;-72
2021/07/14 09:56:09;;;;;;;17.37;14.60;;;20.20;99.90;;;;;;5092369;28;20043;-73
2021/07/14 09:58:34;;;;;;;20.10;14.18;;;20.20;99.90;;;;;;5093442;28;20100;-73
2021/07/14 10:01:04;;;;;;;17.52;13.57;;;20.20;99.90;;;;;;5093843;28;20031;-73
2021/07/14 10:03:36;;;;;;;19.48;14.20;;;20.20;99.90;;;;;;5093793;28;20055;-73
2021/07/14 10:06:11;;;;;;;15.50;11.95;;;20.20;99.90;;;;;;5092172;28;20055;-73
2021/07/14 10:08:39;;;;;;;15.57;11.40;;;20.20;99.90;;;;;;5091911;28;20421;-73
2021/07/14 10:11:16;;;;;;;14.13;10.68;;;20.20;99.90;;;;;;5092303;28;20059;-73
2021/07/14 10:13:54;;;;;;;22.60;14.52;;;20.30;99.90;;;;;;5093636;28;20522;-73
2021/07/14 10:16:21;;;;;;;18.40;14.07;;;20.20;99.90;;;;;;5092363;28;20034;-73
2021/07/14 10:19:03;;;;;;;19.58;15.25;;;20.20;99.90;;;;;;5093312;28;20035;-73
2021/07/14 10:21:30;;;;;;;20.67;15.32;;;20.30;99.90;;;;;;5093408;28;20073;-73
2021/07/14 10:23:56;;;;;;;19.95;14.20;;;20.20;99.90;;;;;;5092058;28;20119;-73
2021/07/14 10:26:22;;;;;;;17.45;14.40;;;20.20;99.90;;;;;;5093283;28;20111;-73
2021/07/14 10:28:51;;;;;;;19.70;13.95;;;20.20;99.90;;;;;;5093280;28;20024;-73
2021/07/14 10:31:21;;;;;;;17.80;12.43;;;20.30;99.90;;;;;;5093751;28;20030;-72
2021/07/14 10:33:49;;;;;;;15.35;11.63;;;20.30;99.90;;;;;;5093240;28;20024;-74
2021/07/14 10:36:16;;;;;;;20.98;14.30;;;20.30;99.90;;;;;;5091347;28;20030;-72
2021/07/14 10:38:48;;;;;;;18.60;13.60;;;20.30;99.90;;;;;;5090002;28;20044;-72
2021/07/14 10:41:14;;;;;;;18.98;14.55;;;20.30;99.90;;;;;;5091570;28;20112;-72
2021/07/14 10:43:41;;;;;;;17.30;12.90;;;20.30;99.90;;;;;;5093268;28;20059;-72
2021/07/14 10:46:08;;;;;;;22.88;14.18;;;20.30;99.90;;;;;;5093009;28;20016;-72
2021/07/14 10:48:33;;;;;;;17.30;13.50;;;20.30;99.90;;;;;;5092729;28;20016;-72
2021/07/14 10:50:59;;;;;;;18.67;13.02;;;20.30;99.90;;;;;;5079734;28;20077;-72
2021/07/14 10:53:24;;;;;;;15.13;12.20;;;20.30;99.90;;;;;;5077193;28;20119;-72
2021/07/14 10:55:54;;;;;;;15.40;10.77;;;20.30;99.90;;;;;;5091881;28;20485;-72
2021/07/14 10:58:22;;;;;;;15.23;10.25;;;20.30;99.90;;;;;;5077022;28;20023;-72
2021/07/14 11:00:48;;;;;;;17.03;12.80;;;20.30;99.90;;;;;;5070564;28;20025;-72
2021/07/14 11:03:41;;;;;;;14.68;11.30;;;20.30;99.90;;;;;;5071992;28;20482;-72
2021/07/14 11:06:11;;;;;;;18.48;12.32;;;20.40;99.90;;;;;;5072679;28;20495;-72
2021/07/14 11:08:46;;;;;;;15.88;11.75;;;20.40;99.90;;;;;;5075592;28;20017;-72
2021/07/14 11:11:20;;;;;;;14.20;11.05;;;20.40;99.90;;;;;;5082282;28;20025;-72
2021/07/14 11:13:51;;;;;;;16.75;12.35;;;20.40;99.90;;;;;;5077300;28;20020;-72
2021/07/14 11:16:35;;;;;;;16.77;12.32;;;20.30;99.90;;;;;;5077578;28;20362;-72
2021/07/14 11:19:19;;;;;;;15.25;11.52;;;20.40;99.90;;;;;;5080604;28;20024;-72
2021/07/14 11:21:44;;;;;;;16.15;11.23;;;20.40;99.90;;;;;;5080991;28;20062;-72
2021/07/14 11:24:10;;;;;;;20.05;13.80;;;20.30;99.90;;;;;;5089201;28;20059;-72
2021/07/14 11:26:35;;;;;;;19.50;14.25;;;20.30;99.90;;;;;;5076054;28;20032;-72
2021/07/14 11:29:13;;;;;;;18.35;12.43;;;20.20;99.90;;;;;;5073600;28;20413;-72
2021/07/14 11:31:42;;;;;;;14.73;11.02;;;20.30;99.90;;;;;;5072622;28;20055;-72
2021/07/14 11:34:27;;;;;;;19.50;11.10;;;20.30;99.90;;;;;;5071368;28;20026;-72
2021/07/14 11:36:52;;;;;;;15.30;11.45;;;20.40;99.90;;;;;;5069721;28;20044;-72
2021/07/14 11:39:28;;;;;;;16.42;11.60;;;20.40;99.90;;;;;;5070483;28;20363;-72
2021/07/14 11:42:17;;;;;;;19.27;12.43;;;20.40;99.90;;;;;;5071698;28;20020;-72
2021/07/14 11:44:50;;;;;;;;;;;20.40;99.90;;;;;;5085842;28;20020;-72
2021/07/14 11:47:35;;;;;;;14.98;11.27;;;20.30;99.90;;;;;;5087404;28;20346;-72
2021/07/14 11:50:05;;;;;;;13.50;10.20;;;20.40;99.90;;;;;;5071710;28;20154;-72
2021/07/14 11:52:42;;;;;;;12.65;8.82;;;20.40;99.90;;;;;;5070367;28;20474;-72
2021/07/14 11:55:33;;;;;;;12.80;8.55;;;20.50;99.90;;;;;;5070120;28;20533;-72
2021/07/14 11:57:58;;;;;;;15.88;11.48;;;20.60;99.90;;;;;;5065328;28;20031;-72
2021/07/14 12:00:34;;;;;;;13.38;10.05;;;20.60;99.90;;;;;;5071411;28;20023;-72
2021/07/14 12:03:00;;;;;;;20.60;13.32;;;20.60;99.90;;;;;;5070263;28;20020;-72
2021/07/14 12:05:36;;;;;;;16.30;10.95;;;20.60;99.90;;;;;;5070804;28;20035;-71
2021/07/14 12:08:13;;;;;;;17.05;11.57;;;20.70;99.90;;;;;;5074822;28;20056;-71
2021/07/14 12:10:40;;;;;;;19.50;13.20;;;20.80;99.90;;;;;;5075754;28;20524;-72
2021/07/14 12:13:06;;;;;;;21.70;13.60;;;20.80;99.90;;;;;;5075539;28;20032;-72
2021/07/14 12:15:46;;;;;;;19.25;12.88;;;20.80;99.80;;;;;;5073744;28;20021;-71
2021/07/14 12:18:12;;;;;;;18.70;12.88;;;20.80;99.70;;;;;;5075621;28;20390;-71
2021/07/14 12:20:47;;;;;;;24.15;15.85;;;20.80;99.70;;;;;;5083567;28;20012;-71
2021/07/14 12:23:16;;;;;;;18.85;13.00;;;20.70;99.60;;;;;;5091232;28;20024;-70
2021/07/14 12:25:41;;;;;;;;;;;20.60;99.70;;;;;;5078529;28;20544;-71
2021/07/14 12:28:14;;;;;;;17.85;12.55;;;20.60;99.80;;;;;;5082478;28;19966;-72
2021/07/14 12:30:47;;;;;;;17.13;12.07;;;20.60;99.90;;;;;;5076210;28;20052;-73
2021/07/14 12:33:15;;;;;;;18.83;12.32;;;20.60;99.90;;;;;;5084369;28;20028;-74
2021/07/14 12:35:42;;;;;;;17.75;11.90;;;20.60;99.90;;;;;;5094304;28;20054;-71
2021/07/14 12:38:15;;;;;;;18.67;12.70;;;20.60;99.90;;;;;;5093636;28;20128;-73
2021/07/14 12:40:45;;;;;;;16.20;12.18;;;20.70;99.80;;;;;;5094362;28;20058;-73
2021/07/14 12:43:19;;;;;;;19.77;12.77;;;20.70;99.90;;;;;;5095586;28;20069;-76
2021/07/14 12:45:49;;;;;;;16.58;11.73;;;20.80;99.80;;;;;;5084144;28;20028;-76